SAS34L LFPG-EKCH
Flight info
| Callsign | SAS34L |
|---|---|
| Flight time | 1h 30m |
| Altitude | 39000 |
| Route | NURMO DCT CMB DCT VEKIN DCT ADUTO DCT VICOT DCT EEL DCT TALSA P729 TUDLO |
| Aircraft | A20N/M-SDE3FGIJ1RWXY/ALB1 |
Departure
| Time | 2026-05-08 14:08 |
|---|---|
| Airport | Charles de Gaulle International Airport (LFPG) |
Arrival
| Time | 2026-05-08 15:39 |
|---|---|
| Airport | Copenhagen Kastrup Airport (EKCH) |
| Time | Latitude | Longitude | Altitude | Speed | Heading |
|---|---|---|---|---|---|
| 2026-05-08 13:20 | 49.00567 | 2.56739 | 335 ft | 0 kts | 176° |
| 2026-05-08 13:52 | 49.00575 | 2.56738 | 335 ft | 2 kts | 175° |
| 2026-05-08 13:52 | 49.00590 | 2.56740 | 335 ft | 2 kts | 198° |
| 2026-05-08 13:52 | 49.00604 | 2.56750 | 335 ft | 2 kts | 215° |
| 2026-05-08 13:52 | 49.00615 | 2.56765 | 335 ft | 2 kts | 232° |
| 2026-05-08 13:53 | 49.00623 | 2.56785 | 335 ft | 2 kts | 250° |
| 2026-05-08 13:53 | 49.00626 | 2.56803 | 335 ft | 0 kts | 263° |
| 2026-05-08 13:53 | 49.00627 | 2.56813 | 335 ft | 0 kts | 266° |
| 2026-05-08 13:57 | 49.00627 | 2.56811 | 335 ft | 0 kts | 267° |
| 2026-05-08 13:57 | 49.00625 | 2.56777 | 335 ft | 5 kts | 266° |
| 2026-05-08 13:57 | 49.00621 | 2.56692 | 336 ft | 9 kts | 265° |
| 2026-05-08 13:57 | 49.00614 | 2.56594 | 336 ft | 9 kts | 265° |
| 2026-05-08 13:58 | 49.00609 | 2.56494 | 336 ft | 9 kts | 265° |
| 2026-05-08 13:58 | 49.00604 | 2.56391 | 336 ft | 9 kts | 267° |
| 2026-05-08 13:58 | 49.00598 | 2.56284 | 336 ft | 10 kts | 265° |
| 2026-05-08 13:58 | 49.00592 | 2.56160 | 336 ft | 12 kts | 266° |
| 2026-05-08 13:59 | 49.00569 | 2.56016 | 336 ft | 15 kts | 256° |
| 2026-05-08 13:59 | 49.00567 | 2.55848 | 336 ft | 16 kts | 268° |
| 2026-05-08 13:59 | 49.00559 | 2.55677 | 336 ft | 16 kts | 265° |
| 2026-05-08 13:59 | 49.00550 | 2.55508 | 337 ft | 13 kts | 266° |
| 2026-05-08 14:00 | 49.00525 | 2.55376 | 337 ft | 12 kts | 231° |
| 2026-05-08 14:00 | 49.00441 | 2.55333 | 336 ft | 12 kts | 171° |
| 2026-05-08 14:00 | 49.00356 | 2.55368 | 336 ft | 12 kts | 164° |
| 2026-05-08 14:00 | 49.00270 | 2.55406 | 335 ft | 13 kts | 164° |
| 2026-05-08 14:01 | 49.00177 | 2.55448 | 333 ft | 14 kts | 164° |
| 2026-05-08 14:01 | 49.00081 | 2.55489 | 333 ft | 13 kts | 164° |
| 2026-05-08 14:01 | 48.99990 | 2.55528 | 333 ft | 13 kts | 165° |
| 2026-05-08 14:01 | 48.99899 | 2.55581 | 331 ft | 14 kts | 147° |
| 2026-05-08 14:02 | 48.99841 | 2.55697 | 330 ft | 13 kts | 110° |
| 2026-05-08 14:02 | 48.99819 | 2.55814 | 330 ft | 0 kts | 105° |
| 2026-05-08 14:02 | 48.99817 | 2.55819 | 330 ft | 0 kts | 133° |
| 2026-05-08 14:02 | 48.99813 | 2.55819 | 330 ft | 1 kts | 189° |
| 2026-05-08 14:03 | 48.99794 | 2.55814 | 330 ft | 3 kts | 191° |
| 2026-05-08 14:03 | 48.99762 | 2.55808 | 330 ft | 5 kts | 181° |
| 2026-05-08 14:03 | 48.99724 | 2.55811 | 330 ft | 5 kts | 175° |
| 2026-05-08 14:03 | 48.99705 | 2.55814 | 330 ft | 0 kts | 175° |
| 2026-05-08 14:06 | 48.99704 | 2.55814 | 330 ft | 0 kts | 175° |
| 2026-05-08 14:06 | 48.99692 | 2.55816 | 330 ft | 3 kts | 175° |
| 2026-05-08 14:06 | 48.99657 | 2.55821 | 329 ft | 7 kts | 175° |
| 2026-05-08 14:07 | 48.99607 | 2.55852 | 329 ft | 5 kts | 122° |
| 2026-05-08 14:07 | 48.99603 | 2.55897 | 328 ft | 0 kts | 88° |
| 2026-05-08 14:07 | 48.99604 | 2.55958 | 329 ft | 24 kts | 86° |
| 2026-05-08 14:07 | 48.99641 | 2.56604 | 327 ft | 97 kts | 85° |
| 2026-05-08 14:08 | 48.99711 | 2.57962 | 325 ft | 157 kts | 85° |
| 2026-05-08 14:08 | 48.99801 | 2.59792 | 592 ft | 182 kts | 86° |
| 2026-05-08 14:08 | 48.99908 | 2.61688 | 1396 ft | 178 kts | 84° |
| 2026-05-08 14:08 | 49.00006 | 2.63506 | 2279 ft | 170 kts | 84° |
| 2026-05-08 14:09 | 49.00119 | 2.65379 | 2783 ft | 183 kts | 84° |
| 2026-05-08 14:09 | 49.00251 | 2.67434 | 3211 ft | 200 kts | 84° |
| 2026-05-08 14:09 | 49.00371 | 2.69682 | 3657 ft | 218 kts | 85° |
| 2026-05-08 14:09 | 49.00489 | 2.72128 | 4082 ft | 240 kts | 85° |
| 2026-05-08 14:10 | 49.00628 | 2.74789 | 4649 ft | 257 kts | 85° |
| 2026-05-08 14:10 | 49.00763 | 2.77583 | 5316 ft | 269 kts | 85° |
| 2026-05-08 14:10 | 49.00912 | 2.80420 | 6201 ft | 273 kts | 85° |
| 2026-05-08 14:10 | 49.01072 | 2.83263 | 7124 ft | 274 kts | 85° |
| 2026-05-08 14:11 | 49.01651 | 2.86010 | 7966 ft | 278 kts | 54° |
| 2026-05-08 14:11 | 49.03151 | 2.87858 | 8774 ft | 283 kts | 22° |
| 2026-05-08 14:11 | 49.05079 | 2.88418 | 9595 ft | 286 kts | 357° |
| 2026-05-08 14:11 | 49.07084 | 2.88073 | 10375 ft | 292 kts | 351° |
| 2026-05-08 14:12 | 49.09110 | 2.87628 | 11075 ft | 300 kts | 351° |
| 2026-05-08 14:12 | 49.11247 | 2.87197 | 11599 ft | 315 kts | 352° |
| 2026-05-08 14:12 | 49.13458 | 2.86790 | 12332 ft | 321 kts | 353° |
| 2026-05-08 14:12 | 49.15718 | 2.86397 | 13135 ft | 325 kts | 353° |
| 2026-05-08 14:13 | 49.17989 | 2.86015 | 13887 ft | 329 kts | 353° |
| 2026-05-08 14:13 | 49.20280 | 2.85638 | 14638 ft | 334 kts | 353° |
| 2026-05-08 14:13 | 49.22617 | 2.85258 | 15298 ft | 340 kts | 353° |
| 2026-05-08 14:13 | 49.24968 | 2.84877 | 16038 ft | 344 kts | 353° |
| 2026-05-08 14:14 | 49.27362 | 2.84490 | 16779 ft | 347 kts | 353° |
| 2026-05-08 14:14 | 49.29785 | 2.84097 | 17513 ft | 350 kts | 353° |
| 2026-05-08 14:14 | 49.32230 | 2.83701 | 18226 ft | 353 kts | 353° |
| 2026-05-08 14:14 | 49.34696 | 2.83301 | 18926 ft | 356 kts | 353° |
| 2026-05-08 14:15 | 49.37175 | 2.82900 | 19605 ft | 359 kts | 352° |
| 2026-05-08 14:15 | 49.39673 | 2.82493 | 20261 ft | 363 kts | 352° |
| 2026-05-08 14:15 | 49.42199 | 2.82083 | 20903 ft | 366 kts | 352° |
| 2026-05-08 14:15 | 49.44756 | 2.81667 | 21539 ft | 369 kts | 352° |
| 2026-05-08 14:16 | 49.47302 | 2.81254 | 22148 ft | 373 kts | 352° |
| 2026-05-08 14:16 | 49.49904 | 2.80830 | 22759 ft | 376 kts | 352° |
| 2026-05-08 14:16 | 49.52509 | 2.80404 | 23366 ft | 379 kts | 352° |
| 2026-05-08 14:16 | 49.55175 | 2.79969 | 23941 ft | 382 kts | 352° |
| 2026-05-08 14:17 | 49.57844 | 2.79530 | 24486 ft | 385 kts | 352° |
| 2026-05-08 14:17 | 49.60519 | 2.79095 | 25059 ft | 386 kts | 352° |
| 2026-05-08 14:17 | 49.63194 | 2.78660 | 25609 ft | 388 kts | 352° |
| 2026-05-08 14:17 | 49.65896 | 2.78220 | 26120 ft | 389 kts | 352° |
| 2026-05-08 14:18 | 49.68607 | 2.77774 | 26624 ft | 391 kts | 352° |
| 2026-05-08 14:18 | 49.71343 | 2.77324 | 27076 ft | 394 kts | 352° |
| 2026-05-08 14:18 | 49.74066 | 2.76878 | 27524 ft | 396 kts | 352° |
| 2026-05-08 14:18 | 49.76813 | 2.76427 | 28001 ft | 396 kts | 352° |
| 2026-05-08 14:19 | 49.79608 | 2.76082 | 28468 ft | 399 kts | 358° |
| 2026-05-08 14:19 | 49.82420 | 2.76570 | 28916 ft | 404 kts | 11° |
| 2026-05-08 14:19 | 49.85098 | 2.77997 | 29350 ft | 409 kts | 22° |
| 2026-05-08 14:19 | 49.87632 | 2.80229 | 29789 ft | 413 kts | 29° |
| 2026-05-08 14:20 | 49.90081 | 2.82636 | 30151 ft | 416 kts | 30° |
| 2026-05-08 14:20 | 49.92527 | 2.85071 | 30483 ft | 419 kts | 30° |
| 2026-05-08 14:20 | 49.94989 | 2.87518 | 30831 ft | 421 kts | 30° |
| 2026-05-08 14:20 | 49.97477 | 2.89977 | 31144 ft | 423 kts | 30° |
| 2026-05-08 14:21 | 49.99960 | 2.92430 | 31427 ft | 426 kts | 30° |
| 2026-05-08 14:21 | 50.02487 | 2.94924 | 31743 ft | 428 kts | 30° |
| 2026-05-08 14:21 | 50.05002 | 2.97408 | 32023 ft | 430 kts | 30° |
| 2026-05-08 14:21 | 50.07548 | 2.99927 | 32287 ft | 432 kts | 30° |
| 2026-05-08 14:22 | 50.10101 | 3.02455 | 32569 ft | 434 kts | 30° |
| 2026-05-08 14:22 | 50.12644 | 3.04965 | 32827 ft | 435 kts | 30° |
| 2026-05-08 14:22 | 50.15206 | 3.07497 | 33186 ft | 435 kts | 30° |
| 2026-05-08 14:22 | 50.17742 | 3.10009 | 33541 ft | 433 kts | 30° |
| 2026-05-08 14:23 | 50.20293 | 3.12527 | 33862 ft | 432 kts | 28° |
| 2026-05-08 14:23 | 50.22905 | 3.14869 | 34149 ft | 431 kts | 25° |
| 2026-05-08 14:23 | 50.25576 | 3.16964 | 34422 ft | 429 kts | 22° |
| 2026-05-08 14:23 | 50.28260 | 3.18882 | 34664 ft | 428 kts | 21° |
| 2026-05-08 14:24 | 50.30999 | 3.20800 | 34878 ft | 428 kts | 21° |
| 2026-05-08 14:24 | 50.33706 | 3.22691 | 35046 ft | 429 kts | 21° |
| 2026-05-08 14:24 | 50.36451 | 3.24615 | 35220 ft | 430 kts | 21° |
| 2026-05-08 14:24 | 50.39206 | 3.26551 | 35371 ft | 430 kts | 21° |
| 2026-05-08 14:25 | 50.41896 | 3.28534 | 35559 ft | 432 kts | 23° |
| 2026-05-08 14:25 | 50.44580 | 3.30617 | 35745 ft | 432 kts | 24° |
| 2026-05-08 14:25 | 50.47303 | 3.32760 | 35912 ft | 432 kts | 24° |
| 2026-05-08 14:25 | 50.49989 | 3.34874 | 36100 ft | 433 kts | 24° |
| 2026-05-08 14:26 | 50.52700 | 3.36906 | 36294 ft | 433 kts | 21° |
| 2026-05-08 14:26 | 50.55448 | 3.38835 | 36501 ft | 434 kts | 21° |
| 2026-05-08 14:26 | 50.58234 | 3.40766 | 36715 ft | 434 kts | 21° |
| 2026-05-08 14:26 | 50.60996 | 3.42683 | 36921 ft | 434 kts | 21° |
| 2026-05-08 14:27 | 50.63756 | 3.44605 | 37107 ft | 434 kts | 21° |
| 2026-05-08 14:27 | 50.66509 | 3.46528 | 37446 ft | 435 kts | 21° |
| 2026-05-08 14:27 | 50.69307 | 3.48489 | 37610 ft | 435 kts | 21° |
| 2026-05-08 14:27 | 50.72052 | 3.50416 | 37766 ft | 435 kts | 21° |
| 2026-05-08 14:28 | 50.74867 | 3.52396 | 37913 ft | 436 kts | 21° |
| 2026-05-08 14:28 | 50.77640 | 3.54348 | 38041 ft | 437 kts | 21° |
| 2026-05-08 14:28 | 50.80401 | 3.56297 | 38171 ft | 437 kts | 21° |
| 2026-05-08 14:28 | 50.83185 | 3.58264 | 38299 ft | 438 kts | 21° |
| 2026-05-08 14:29 | 50.85961 | 3.60228 | 38424 ft | 438 kts | 21° |
| 2026-05-08 14:29 | 50.88726 | 3.62188 | 38543 ft | 439 kts | 21° |
| 2026-05-08 14:29 | 50.91560 | 3.64199 | 38667 ft | 439 kts | 21° |
| 2026-05-08 14:29 | 50.94342 | 3.66179 | 38781 ft | 440 kts | 22° |
| 2026-05-08 14:30 | 50.97144 | 3.68187 | 38900 ft | 440 kts | 22° |
| 2026-05-08 14:30 | 50.99919 | 3.70177 | 39029 ft | 440 kts | 22° |
| 2026-05-08 14:30 | 51.02746 | 3.72201 | 39050 ft | 441 kts | 22° |
| 2026-05-08 14:31 | 51.08339 | 3.76204 | 39067 ft | 442 kts | 22° |
| 2026-05-08 14:31 | 51.13939 | 3.80208 | 39066 ft | 443 kts | 22° |
| 2026-05-08 14:32 | 51.22422 | 3.86291 | 39074 ft | 443 kts | 22° |
| 2026-05-08 14:32 | 51.28051 | 3.90353 | 39080 ft | 443 kts | 22° |
| 2026-05-08 14:33 | 51.33672 | 3.94425 | 39073 ft | 442 kts | 22° |
| 2026-05-08 14:33 | 51.39301 | 3.98512 | 39082 ft | 442 kts | 22° |
| 2026-05-08 14:34 | 51.44832 | 4.02878 | 39085 ft | 444 kts | 27° |
| 2026-05-08 14:34 | 51.50047 | 4.08281 | 39089 ft | 446 kts | 35° |
| 2026-05-08 14:35 | 51.54800 | 4.14632 | 39090 ft | 449 kts | 40° |
| 2026-05-08 14:35 | 51.59389 | 4.21445 | 39090 ft | 449 kts | 41° |
| 2026-05-08 14:36 | 51.63974 | 4.28289 | 39091 ft | 449 kts | 41° |
| 2026-05-08 14:36 | 51.68559 | 4.35129 | 39090 ft | 448 kts | 41° |
| 2026-05-08 14:37 | 51.73115 | 4.41934 | 39088 ft | 448 kts | 41° |
| 2026-05-08 14:37 | 51.77677 | 4.48765 | 39091 ft | 448 kts | 41° |
| 2026-05-08 14:38 | 51.82245 | 4.55624 | 39092 ft | 448 kts | 41° |
| 2026-05-08 14:38 | 51.86803 | 4.62487 | 39094 ft | 449 kts | 41° |
| 2026-05-08 14:39 | 51.91374 | 4.69405 | 39091 ft | 449 kts | 42° |
| 2026-05-08 14:39 | 51.95897 | 4.76287 | 39095 ft | 449 kts | 41° |
| 2026-05-08 14:40 | 52.00461 | 4.83232 | 39092 ft | 448 kts | 41° |
| 2026-05-08 14:40 | 52.05022 | 4.90185 | 39094 ft | 448 kts | 41° |
| 2026-05-08 14:41 | 52.09556 | 4.97114 | 39098 ft | 448 kts | 41° |
| 2026-05-08 14:41 | 52.14090 | 5.04030 | 39103 ft | 448 kts | 41° |
| 2026-05-08 14:42 | 52.18636 | 5.10985 | 39105 ft | 449 kts | 42° |
| 2026-05-08 14:42 | 52.23197 | 5.18007 | 39106 ft | 449 kts | 42° |
| 2026-05-08 14:43 | 52.27714 | 5.24989 | 39108 ft | 450 kts | 42° |
| 2026-05-08 14:43 | 52.32265 | 5.32047 | 39111 ft | 449 kts | 41° |
| 2026-05-08 14:44 | 52.36786 | 5.39079 | 39115 ft | 449 kts | 41° |
| 2026-05-08 14:44 | 52.41305 | 5.46130 | 39120 ft | 449 kts | 41° |
| 2026-05-08 14:45 | 52.45815 | 5.53188 | 39123 ft | 449 kts | 41° |
| 2026-05-08 14:45 | 52.50331 | 5.60272 | 39123 ft | 449 kts | 42° |
| 2026-05-08 14:46 | 52.54834 | 5.67365 | 39124 ft | 449 kts | 43° |
| 2026-05-08 14:46 | 52.59330 | 5.74499 | 39128 ft | 450 kts | 43° |
| 2026-05-08 14:47 | 52.63833 | 5.81645 | 39128 ft | 451 kts | 43° |
| 2026-05-08 14:47 | 52.68367 | 5.88851 | 39135 ft | 451 kts | 43° |
| 2026-05-08 14:48 | 52.72873 | 5.96033 | 39136 ft | 451 kts | 43° |
| 2026-05-08 14:48 | 52.77376 | 6.03228 | 39134 ft | 451 kts | 43° |
| 2026-05-08 14:49 | 52.81855 | 6.10409 | 39133 ft | 451 kts | 43° |
| 2026-05-08 14:49 | 52.86355 | 6.17646 | 39131 ft | 451 kts | 43° |
| 2026-05-08 14:50 | 52.90864 | 6.24919 | 39128 ft | 451 kts | 43° |
| 2026-05-08 14:50 | 52.95353 | 6.32185 | 39132 ft | 451 kts | 43° |
| 2026-05-08 14:51 | 52.99851 | 6.39486 | 39134 ft | 452 kts | 43° |
| 2026-05-08 14:51 | 53.04353 | 6.46816 | 39145 ft | 452 kts | 43° |
| 2026-05-08 14:52 | 53.11121 | 6.57881 | 39151 ft | 452 kts | 43° |
| 2026-05-08 14:53 | 53.15625 | 6.65227 | 39150 ft | 452 kts | 43° |
| 2026-05-08 14:53 | 53.20340 | 6.72293 | 39156 ft | 451 kts | 40° |
| 2026-05-08 14:54 | 53.25102 | 6.79224 | 39157 ft | 450 kts | 40° |
| 2026-05-08 14:54 | 53.29808 | 6.86106 | 39163 ft | 450 kts | 40° |
| 2026-05-08 14:55 | 53.34508 | 6.93011 | 39164 ft | 451 kts | 40° |
| 2026-05-08 14:55 | 53.39222 | 6.99959 | 39168 ft | 451 kts | 40° |
| 2026-05-08 14:56 | 53.43937 | 7.06931 | 39169 ft | 452 kts | 40° |
| 2026-05-08 14:56 | 53.48625 | 7.13889 | 39168 ft | 452 kts | 40° |
| 2026-05-08 14:57 | 53.53331 | 7.20893 | 39173 ft | 451 kts | 40° |
| 2026-05-08 14:57 | 53.57980 | 7.27834 | 39173 ft | 451 kts | 40° |
| 2026-05-08 14:58 | 53.62691 | 7.34890 | 39177 ft | 450 kts | 40° |
| 2026-05-08 14:58 | 53.67374 | 7.41925 | 39173 ft | 450 kts | 40° |
| 2026-05-08 14:59 | 53.72068 | 7.49000 | 39175 ft | 450 kts | 40° |
| 2026-05-08 14:59 | 53.79076 | 7.59600 | 39177 ft | 451 kts | 40° |
| 2026-05-08 15:00 | 53.83770 | 7.66729 | 39178 ft | 451 kts | 41° |
| 2026-05-08 15:00 | 53.88448 | 7.73890 | 39183 ft | 451 kts | 41° |
| 2026-05-08 15:01 | 53.93140 | 7.81078 | 39180 ft | 450 kts | 41° |
| 2026-05-08 15:01 | 53.97811 | 7.88246 | 39174 ft | 450 kts | 41° |
| 2026-05-08 15:02 | 54.02468 | 7.95409 | 39172 ft | 450 kts | 41° |
| 2026-05-08 15:02 | 54.07158 | 8.02645 | 39180 ft | 451 kts | 41° |
| 2026-05-08 15:03 | 54.11852 | 8.09901 | 39187 ft | 451 kts | 41° |
| 2026-05-08 15:03 | 54.16540 | 8.17136 | 39192 ft | 451 kts | 41° |
| 2026-05-08 15:04 | 54.21220 | 8.24404 | 39196 ft | 451 kts | 41° |
| 2026-05-08 15:04 | 54.25842 | 8.31621 | 39196 ft | 451 kts | 41° |
| 2026-05-08 15:05 | 54.30476 | 8.38886 | 39199 ft | 451 kts | 41° |
| 2026-05-08 15:05 | 54.35118 | 8.46187 | 39199 ft | 451 kts | 41° |
| 2026-05-08 15:06 | 54.39775 | 8.53537 | 39200 ft | 451 kts | 41° |
| 2026-05-08 15:06 | 54.44397 | 8.60853 | 39202 ft | 451 kts | 41° |
| 2026-05-08 15:07 | 54.49030 | 8.68217 | 39205 ft | 451 kts | 42° |
| 2026-05-08 15:07 | 54.53629 | 8.75574 | 39211 ft | 450 kts | 42° |
| 2026-05-08 15:08 | 54.57458 | 8.81704 | 39211 ft | 450 kts | 42° |
| 2026-05-08 15:08 | 54.62816 | 8.90300 | 39216 ft | 449 kts | 42° |
| 2026-05-08 15:09 | 54.67396 | 8.97669 | 39213 ft | 450 kts | 42° |
| 2026-05-08 15:09 | 54.71978 | 9.05065 | 39217 ft | 450 kts | 42° |
| 2026-05-08 15:10 | 54.76543 | 9.12458 | 39227 ft | 450 kts | 42° |
| 2026-05-08 15:10 | 54.80944 | 9.20119 | 39228 ft | 451 kts | 52° |
| 2026-05-08 15:11 | 54.84062 | 9.29513 | 39232 ft | 452 kts | 64° |
| 2026-05-08 15:11 | 54.85385 | 9.34483 | 39131 ft | 453 kts | 65° |
| 2026-05-08 15:11 | 54.86683 | 9.39413 | 38815 ft | 451 kts | 65° |
| 2026-05-08 15:12 | 54.87990 | 9.44364 | 38419 ft | 448 kts | 64° |
| 2026-05-08 15:12 | 54.89283 | 9.49237 | 37957 ft | 449 kts | 64° |
| 2026-05-08 15:12 | 54.90618 | 9.54261 | 37406 ft | 451 kts | 64° |
| 2026-05-08 15:12 | 54.91935 | 9.59210 | 36834 ft | 454 kts | 64° |
| 2026-05-08 15:13 | 54.93276 | 9.64244 | 36252 ft | 457 kts | 64° |
| 2026-05-08 15:13 | 54.94614 | 9.69283 | 35626 ft | 461 kts | 64° |
| 2026-05-08 15:13 | 54.95948 | 9.74325 | 35067 ft | 462 kts | 64° |
| 2026-05-08 15:13 | 54.97284 | 9.79376 | 34493 ft | 462 kts | 64° |
| 2026-05-08 15:14 | 54.98646 | 9.84532 | 33926 ft | 463 kts | 64° |
| 2026-05-08 15:14 | 54.99992 | 9.89630 | 33305 ft | 463 kts | 64° |
| 2026-05-08 15:14 | 55.01324 | 9.94689 | 32653 ft | 462 kts | 65° |
| 2026-05-08 15:14 | 55.02644 | 9.99708 | 31998 ft | 462 kts | 65° |
| 2026-05-08 15:15 | 55.03992 | 10.04850 | 31287 ft | 462 kts | 65° |
| 2026-05-08 15:15 | 55.05317 | 10.09919 | 30638 ft | 459 kts | 65° |
| 2026-05-08 15:15 | 55.06637 | 10.14983 | 30047 ft | 455 kts | 65° |
| 2026-05-08 15:15 | 55.07924 | 10.19936 | 29541 ft | 449 kts | 65° |
| 2026-05-08 15:16 | 55.09224 | 10.24935 | 29064 ft | 443 kts | 65° |
| 2026-05-08 15:16 | 55.10475 | 10.29760 | 28622 ft | 436 kts | 65° |
| 2026-05-08 15:16 | 55.11727 | 10.34549 | 28178 ft | 430 kts | 65° |
| 2026-05-08 15:16 | 55.12962 | 10.39282 | 27740 ft | 425 kts | 65° |
| 2026-05-08 15:17 | 55.14185 | 10.43994 | 27303 ft | 419 kts | 65° |
| 2026-05-08 15:17 | 55.15386 | 10.48644 | 26865 ft | 414 kts | 65° |
| 2026-05-08 15:17 | 55.16568 | 10.53243 | 26426 ft | 410 kts | 65° |
| 2026-05-08 15:17 | 55.17725 | 10.57760 | 25996 ft | 406 kts | 65° |
| 2026-05-08 15:18 | 55.18880 | 10.62276 | 25565 ft | 402 kts | 65° |
| 2026-05-08 15:18 | 55.20016 | 10.66732 | 25137 ft | 398 kts | 66° |
| 2026-05-08 15:18 | 55.21136 | 10.71148 | 24713 ft | 394 kts | 66° |
| 2026-05-08 15:18 | 55.22251 | 10.75553 | 24299 ft | 390 kts | 66° |
| 2026-05-08 15:19 | 55.23339 | 10.79859 | 23895 ft | 387 kts | 66° |
| 2026-05-08 15:19 | 55.24422 | 10.84154 | 23488 ft | 384 kts | 66° |
| 2026-05-08 15:19 | 55.25506 | 10.88456 | 23073 ft | 381 kts | 66° |
| 2026-05-08 15:19 | 55.26566 | 10.92670 | 22669 ft | 378 kts | 66° |
| 2026-05-08 15:20 | 55.27626 | 10.96888 | 22261 ft | 375 kts | 66° |
| 2026-05-08 15:20 | 55.28669 | 11.01045 | 21857 ft | 373 kts | 66° |
| 2026-05-08 15:20 | 55.29710 | 11.05203 | 21454 ft | 370 kts | 66° |
| 2026-05-08 15:20 | 55.30744 | 11.09336 | 21054 ft | 367 kts | 66° |
| 2026-05-08 15:21 | 55.31765 | 11.13429 | 20656 ft | 365 kts | 66° |
| 2026-05-08 15:21 | 55.32784 | 11.17522 | 20253 ft | 362 kts | 66° |
| 2026-05-08 15:21 | 55.33792 | 11.21575 | 19854 ft | 359 kts | 66° |
| 2026-05-08 15:21 | 55.34781 | 11.25558 | 19457 ft | 357 kts | 66° |
| 2026-05-08 15:22 | 55.35772 | 11.29562 | 19058 ft | 354 kts | 66° |
| 2026-05-08 15:22 | 55.36755 | 11.33541 | 18661 ft | 352 kts | 66° |
| 2026-05-08 15:22 | 55.37723 | 11.37474 | 18268 ft | 350 kts | 66° |
| 2026-05-08 15:22 | 55.38691 | 11.41406 | 17872 ft | 347 kts | 66° |
| 2026-05-08 15:23 | 55.39651 | 11.45312 | 17482 ft | 345 kts | 66° |
| 2026-05-08 15:23 | 55.40599 | 11.49184 | 17098 ft | 342 kts | 66° |
| 2026-05-08 15:23 | 55.41546 | 11.53051 | 16746 ft | 337 kts | 66° |
| 2026-05-08 15:23 | 55.42446 | 11.56729 | 16675 ft | 323 kts | 66° |
| 2026-05-08 15:24 | 55.43332 | 11.60289 | 16545 ft | 312 kts | 63° |
| 2026-05-08 15:24 | 55.44482 | 11.63529 | 16178 ft | 309 kts | 51° |
| 2026-05-08 15:24 | 55.45982 | 11.66302 | 15830 ft | 306 kts | 43° |
| 2026-05-08 15:24 | 55.47559 | 11.68794 | 15497 ft | 303 kts | 42° |
| 2026-05-08 15:25 | 55.49124 | 11.71257 | 15141 ft | 301 kts | 46° |
| 2026-05-08 15:25 | 55.50346 | 11.74312 | 14711 ft | 300 kts | 64° |
| 2026-05-08 15:25 | 55.51220 | 11.77647 | 14252 ft | 301 kts | 67° |
| 2026-05-08 15:25 | 55.52070 | 11.81072 | 13853 ft | 300 kts | 66° |
| 2026-05-08 15:26 | 55.52935 | 11.84453 | 13503 ft | 297 kts | 66° |
| 2026-05-08 15:26 | 55.53792 | 11.87706 | 13186 ft | 294 kts | 65° |
| 2026-05-08 15:26 | 55.54671 | 11.90975 | 12860 ft | 290 kts | 65° |
| 2026-05-08 15:26 | 55.55547 | 11.94196 | 12544 ft | 286 kts | 65° |
| 2026-05-08 15:27 | 55.56418 | 11.97374 | 12233 ft | 283 kts | 65° |
| 2026-05-08 15:27 | 55.57277 | 12.00502 | 11934 ft | 280 kts | 65° |
| 2026-05-08 15:27 | 55.58142 | 12.03645 | 11618 ft | 277 kts | 65° |
| 2026-05-08 15:27 | 55.58978 | 12.06687 | 11312 ft | 275 kts | 65° |
| 2026-05-08 15:28 | 55.59814 | 12.09728 | 11003 ft | 272 kts | 65° |
| 2026-05-08 15:28 | 55.60657 | 12.12799 | 10696 ft | 270 kts | 65° |
| 2026-05-08 15:28 | 55.61471 | 12.15766 | 10404 ft | 268 kts | 65° |
| 2026-05-08 15:28 | 55.62308 | 12.18778 | 10095 ft | 267 kts | 63° |
| 2026-05-08 15:29 | 55.63280 | 12.21578 | 9721 ft | 269 kts | 58° |
| 2026-05-08 15:29 | 55.64346 | 12.24385 | 9304 ft | 271 kts | 58° |
| 2026-05-08 15:29 | 55.65404 | 12.27168 | 8964 ft | 269 kts | 58° |
| 2026-05-08 15:29 | 55.66430 | 12.29900 | 8647 ft | 267 kts | 58° |
| 2026-05-08 15:30 | 55.67451 | 12.32648 | 8338 ft | 263 kts | 58° |
| 2026-05-08 15:30 | 55.68447 | 12.35351 | 8042 ft | 259 kts | 58° |
| 2026-05-08 15:30 | 55.69430 | 12.38026 | 7762 ft | 256 kts | 58° |
| 2026-05-08 15:30 | 55.70395 | 12.40666 | 7484 ft | 252 kts | 58° |
| 2026-05-08 15:31 | 55.71352 | 12.43290 | 7202 ft | 249 kts | 59° |
| 2026-05-08 15:31 | 55.72296 | 12.45880 | 6914 ft | 246 kts | 59° |
| 2026-05-08 15:31 | 55.73214 | 12.48405 | 6649 ft | 243 kts | 58° |
| 2026-05-08 15:31 | 55.74137 | 12.50948 | 6370 ft | 240 kts | 58° |
| 2026-05-08 15:32 | 55.75040 | 12.53437 | 6094 ft | 237 kts | 58° |
| 2026-05-08 15:32 | 55.75926 | 12.55882 | 5818 ft | 235 kts | 58° |
| 2026-05-08 15:32 | 55.76815 | 12.58338 | 5536 ft | 233 kts | 58° |
| 2026-05-08 15:32 | 55.77697 | 12.60775 | 5269 ft | 232 kts | 58° |
| 2026-05-08 15:33 | 55.78560 | 12.63162 | 5000 ft | 231 kts | 59° |
| 2026-05-08 15:33 | 55.79423 | 12.65555 | 4728 ft | 230 kts | 59° |
| 2026-05-08 15:33 | 55.80288 | 12.67968 | 4451 ft | 229 kts | 60° |
| 2026-05-08 15:33 | 55.81152 | 12.70386 | 4191 ft | 227 kts | 62° |
| 2026-05-08 15:34 | 55.81668 | 12.73069 | 3932 ft | 238 kts | 88° |
| 2026-05-08 15:34 | 55.81336 | 12.75993 | 3681 ft | 238 kts | 110° |
| 2026-05-08 15:34 | 55.80660 | 12.78627 | 3426 ft | 234 kts | 114° |
| 2026-05-08 15:34 | 55.79918 | 12.81243 | 3173 ft | 240 kts | 115° |
| 2026-05-08 15:35 | 55.79152 | 12.83838 | 2997 ft | 232 kts | 121° |
| 2026-05-08 15:35 | 55.77994 | 12.85750 | 2978 ft | 223 kts | 153° |
| 2026-05-08 15:35 | 55.76489 | 12.86159 | 2982 ft | 225 kts | 184° |
| 2026-05-08 15:35 | 55.74954 | 12.85398 | 2991 ft | 231 kts | 201° |
| 2026-05-08 15:36 | 55.73558 | 12.83930 | 2867 ft | 235 kts | 213° |
| 2026-05-08 15:36 | 55.72709 | 12.82686 | 2680 ft | 237 kts | 219° |
| 2026-05-08 15:36 | 55.71090 | 12.80008 | 2258 ft | 237 kts | 219° |
| 2026-05-08 15:36 | 55.69890 | 12.78097 | 1939 ft | 230 kts | 218° |
| 2026-05-08 15:37 | 55.68690 | 12.76248 | 1619 ft | 218 kts | 218° |
| 2026-05-08 15:37 | 55.67569 | 12.74526 | 1375 ft | 205 kts | 218° |
| 2026-05-08 15:37 | 55.66501 | 12.72880 | 1086 ft | 199 kts | 219° |
| 2026-05-08 15:37 | 55.65501 | 12.71334 | 803 ft | 184 kts | 219° |
| 2026-05-08 15:38 | 55.64558 | 12.69876 | 575 ft | 167 kts | 220° |
| 2026-05-08 15:38 | 55.63716 | 12.68574 | 359 ft | 150 kts | 220° |
| 2026-05-08 15:38 | 55.62971 | 12.67419 | 153 ft | 135 kts | 221° |
| 2026-05-08 15:38 | 55.62300 | 12.66376 | 24 ft | 117 kts | 221° |
| 2026-05-08 15:39 | 55.61805 | 12.65610 | 25 ft | 69 kts | 221° |
| 2026-05-08 15:39 | 55.61553 | 12.65222 | 25 ft | 37 kts | 221° |
| 2026-05-08 15:39 | 55.61377 | 12.64950 | 27 ft | 27 kts | 221° |
| 2026-05-08 15:39 | 55.61273 | 12.64685 | 27 ft | 23 kts | 246° |
| 2026-05-08 15:40 | 55.61230 | 12.64476 | 26 ft | 16 kts | 251° |
| 2026-05-08 15:40 | 55.61195 | 12.64296 | 26 ft | 13 kts | 251° |
| 2026-05-08 15:40 | 55.61209 | 12.64139 | 27 ft | 13 kts | 315° |
| 2026-05-08 15:40 | 55.61298 | 12.64131 | 27 ft | 14 kts | 31° |
| 2026-05-08 15:41 | 55.61383 | 12.64228 | 27 ft | 14 kts | 33° |
| 2026-05-08 15:41 | 55.61470 | 12.64330 | 27 ft | 15 kts | 34° |
| 2026-05-08 15:41 | 55.61561 | 12.64432 | 26 ft | 10 kts | 32° |
| 2026-05-08 15:41 | 55.61627 | 12.64507 | 26 ft | 11 kts | 33° |
| 2026-05-08 15:42 | 55.61660 | 12.64545 | 26 ft | 3 kts | 33° |
| 2026-05-08 15:42 | 55.61688 | 12.64567 | 27 ft | 5 kts | 11° |
| 2026-05-08 15:42 | 55.61734 | 12.64562 | 27 ft | 8 kts | 352° |
| 2026-05-08 15:42 | 55.61799 | 12.64541 | 27 ft | 11 kts | 349° |
| 2026-05-08 15:43 | 55.61889 | 12.64512 | 26 ft | 14 kts | 349° |
| 2026-05-08 15:43 | 55.61992 | 12.64477 | 25 ft | 15 kts | 349° |
| 2026-05-08 15:43 | 55.62085 | 12.64446 | 25 ft | 4 kts | 349° |
| 2026-05-08 15:43 | 55.62102 | 12.64441 | 25 ft | 0 kts | 349° |
| 2026-05-08 15:45 | 55.62112 | 12.64437 | 25 ft | 3 kts | 349° |
| 2026-05-08 15:45 | 55.62149 | 12.64425 | 25 ft | 7 kts | 349° |
| 2026-05-08 15:45 | 55.62210 | 12.64405 | 25 ft | 9 kts | 349° |
| 2026-05-08 15:45 | 55.62276 | 12.64394 | 25 ft | 7 kts | 12° |
| 2026-05-08 15:46 | 55.62322 | 12.64416 | 25 ft | 7 kts | 15° |
| 2026-05-08 15:46 | 55.62372 | 12.64440 | 25 ft | 7 kts | 15° |
| 2026-05-08 15:46 | 55.62430 | 12.64467 | 26 ft | 9 kts | 15° |
| 2026-05-08 15:46 | 55.62492 | 12.64476 | 26 ft | 6 kts | 327° |
| 2026-05-08 15:47 | 55.62524 | 12.64403 | 26 ft | 8 kts | 304° |
| 2026-05-08 15:47 | 55.62536 | 12.64371 | 26 ft | 0 kts | 303° |
| 2026-05-08 15:48 | 55.62539 | 12.64364 | 26 ft | 2 kts | 303° |
| 2026-05-08 15:48 | 55.62556 | 12.64316 | 26 ft | 6 kts | 303° |
| 2026-05-08 15:48 | 55.62587 | 12.64257 | 26 ft | 6 kts | 343° |
| 2026-05-08 15:49 | 55.62633 | 12.64289 | 26 ft | 8 kts | 27° |
| 2026-05-08 15:49 | 55.62677 | 12.64327 | 26 ft | 6 kts | 52° |
| 2026-05-08 15:49 | 55.62677 | 12.64393 | 26 ft | 4 kts | 103° |
| 2026-05-08 15:49 | 55.62672 | 12.64431 | 26 ft | 1 kts | 99° |
| 2026-05-08 15:50 | 55.62672 | 12.64443 | 26 ft | 0 kts | 96° |
| 2026-05-08 15:50 | 55.62672 | 12.64444 | 26 ft | 0 kts | 96° |